Terminal Aerodrome Forecast
Issued by NWS Blacksburg, VA

Home | Current Version | Previous Version | Text Only | Print | Product List | Glossary On
Versions: 1 2 3 4 5 6 7 8 9 10 11 12 13 14 15 16 17 18 19 20 21 22 23 24 25 26 27 28 29 30 31 32 33 34 35 36
000
FTUS41 KRNK 200520
TAFROA
TAF
KROA 200520Z 2006/2106 13004KT P6SM BKN080 OVC150
     FM201000 13006KT P6SM -RA OVC070
     FM201200 14007KT 4SM -RA BR OVC025
      TEMPO 2013/2016 2SM RA BR OVC015
     FM201800 19004KT 5SM -RADZ BR SCT008 OVC015
     FM202300 VRB03KT 4SM -DZ BR OVC008=

USA.gov is the U.S. government's official web portal to all federal, state and local government web resources and services.